createdAt,value
2022-09-13T00:00:10.211Z,5.18
2022-09-13T00:02:38.162Z,5.05
2022-09-13T00:05:05.756Z,4.25
2022-09-13T00:07:32.821Z,5.70
2022-09-13T00:10:00.147Z,5.45
2022-09-13T00:12:27.301Z,6.40
2022-09-13T00:14:55.232Z,4.75
2022-09-13T00:17:26.166Z,5.88
2022-09-13T00:19:53.418Z,5.15
2022-09-13T00:22:20.681Z,6.05
2022-09-13T00:24:47.816Z,5.05
2022-09-13T00:27:15.183Z,6.10
2022-09-13T00:29:43.318Z,4.95
2022-09-13T00:32:10.519Z,4.68
2022-09-13T00:34:38.116Z,5.13
2022-09-13T00:37:05.558Z,4.50
2022-09-13T00:39:33.392Z,5.20
2022-09-13T00:42:00.494Z,4.00
2022-09-13T00:44:48.240Z,5.30
2022-09-13T00:47:21.266Z,5.65
2022-09-13T00:49:51.111Z,4.95
2022-09-13T00:52:21.055Z,5.53
2022-09-13T00:54:56.374Z,4.97
2022-09-13T00:57:25.395Z,4.97
2022-09-13T01:00:13.641Z,4.75
2022-09-13T01:02:45.026Z,5.10
2022-09-13T01:05:13.475Z,5.28
2022-09-13T01:07:41.909Z,4.80
2022-09-13T01:10:09.440Z,5.38
2022-09-13T01:12:48.616Z,4.57
2022-09-13T01:15:16.200Z,5.25
2022-09-13T01:17:44.187Z,4.72
2022-09-13T01:20:12.950Z,6.35
2022-09-13T01:23:06.651Z,4.88
2022-09-13T01:25:56.796Z,5.45
2022-09-13T01:28:42.929Z,5.22
2022-09-13T01:31:19.069Z,5.20
2022-09-13T01:33:53.075Z,5.43
2022-09-13T01:36:21.125Z,4.72
2022-09-13T01:39:03.361Z,6.20
2022-09-13T01:42:10.117Z,4.85
2022-09-13T01:45:06.479Z,5.25
2022-09-13T01:47:39.119Z,4.88
2022-09-13T01:50:51.145Z,4.43
2022-09-13T01:53:49.498Z,5.10
2022-09-13T01:56:49.036Z,5.22
2022-09-13T01:59:29.081Z,5.38
2022-09-13T02:02:19.826Z,4.85
2022-09-13T02:04:54.381Z,4.95
2022-09-13T02:07:36.657Z,6.63
2022-09-13T02:10:12.199Z,5.35
2022-09-13T02:12:42.938Z,6.13
2022-09-13T02:15:10.134Z,5.40
2022-09-13T02:17:41.321Z,5.45
2022-09-13T02:20:33.161Z,5.55
2022-09-13T02:23:04.926Z,4.70
2022-09-13T02:25:36.563Z,4.90
2022-09-13T02:28:08.374Z,5.20
2022-09-13T02:30:40.628Z,5.25
2022-09-13T02:33:13.637Z,5.18
2022-09-13T02:35:53.831Z,5.28
2022-09-13T02:38:28.956Z,5.22
2022-09-13T02:41:20.472Z,5.47
2022-09-13T02:43:52.126Z,5.38
2022-09-13T02:46:28.145Z,5.95
2022-09-13T02:49:08.444Z,4.80
2022-09-13T02:51:55.591Z,5.45
2022-09-13T02:54:34.747Z,5.22
2022-09-13T02:57:18.638Z,5.57
2022-09-13T02:59:48.230Z,6.88
2022-09-13T03:02:26.698Z,7.07
2022-09-13T03:04:54.303Z,7.45
2022-09-13T03:07:21.410Z,6.70
2022-09-13T03:09:58.480Z,7.05
2022-09-13T03:13:13.216Z,7.45
2022-09-13T03:15:40.415Z,7.10
2022-09-13T03:18:41.234Z,7.05
2022-09-13T03:21:45.427Z,8.63
2022-09-13T03:24:36.510Z,7.70
2022-09-13T03:27:20.314Z,5.88
2022-09-13T03:30:04.620Z,6.95
2022-09-13T03:33:01.166Z,6.18
2022-09-13T03:35:49.841Z,6.35
2022-09-13T03:38:27.564Z,5.88
2022-09-13T03:41:07.517Z,5.82
2022-09-13T03:43:40.555Z,5.47
2022-09-13T03:46:13.546Z,5.47
2022-09-13T03:48:44.871Z,6.57
2022-09-13T03:51:12.739Z,6.88
2022-09-13T03:53:50.628Z,7.38
2022-09-13T03:56:22.434Z,5.53
2022-09-13T03:58:49.939Z,6.55
2022-09-13T04:01:21.150Z,6.75
2022-09-13T04:03:49.540Z,6.35
2022-09-13T04:06:19.066Z,5.88
2022-09-13T04:08:46.117Z,6.32
2022-09-13T04:11:13.312Z,7.35
2022-09-13T04:13:41.817Z,7.00
2022-09-13T04:16:11.290Z,6.43
2022-09-13T04:18:41.231Z,6.22
2022-09-13T04:21:18.685Z,6.20
2022-09-13T04:23:50.742Z,7.68
2022-09-13T04:26:17.917Z,6.30
2022-09-13T04:28:45.215Z,6.25
2022-09-13T04:31:13.935Z,6.63
2022-09-13T04:33:43.941Z,7.05
2022-09-13T04:36:13.759Z,7.28
2022-09-13T04:39:37.749Z,6.97
2022-09-13T04:42:05.519Z,6.20
2022-09-13T04:44:33.140Z,6.97
2022-09-13T04:47:00.601Z,6.85
2022-09-13T04:49:27.801Z,6.85
2022-09-13T04:51:54.915Z,6.15
2022-09-13T04:54:25.120Z,6.18
2022-09-13T04:56:58.133Z,6.20
2022-09-13T04:59:25.283Z,5.65
2022-09-13T05:01:52.775Z,6.20
2022-09-13T05:04:24.800Z,7.38
2022-09-13T05:06:55.326Z,6.70
2022-09-13T05:09:22.619Z,7.40
2022-09-13T05:11:49.919Z,7.13
2022-09-13T05:14:25.488Z,6.18
2022-09-13T05:17:16.587Z,7.05
2022-09-13T05:19:51.361Z,6.57
2022-09-13T05:22:21.382Z,5.88
2022-09-13T05:24:55.965Z,6.15
2022-09-13T05:27:25.825Z,5.65
2022-09-13T05:29:54.423Z,4.93
2022-09-13T05:32:21.368Z,7.07
2022-09-13T05:34:48.957Z,7.53
2022-09-13T05:37:18.794Z,6.13
2022-09-13T05:40:09.842Z,6.18
2022-09-13T05:42:32.841Z,7.57
2022-09-13T05:44:59.809Z,6.72
2022-09-13T05:47:26.881Z,7.28
2022-09-13T05:50:10.815Z,6.55
2022-09-13T05:52:39.044Z,7.28
2022-09-13T05:55:06.336Z,6.50
2022-09-13T05:57:33.426Z,7.00
2022-09-13T06:00:00.522Z,7.35
2022-09-13T06:02:27.576Z,6.97
2022-09-13T06:04:54.672Z,6.82
2022-09-13T06:07:21.569Z,6.80
2022-09-13T06:09:49.896Z,6.22
2022-09-13T06:12:16.839Z,7.65
2022-09-13T06:14:43.829Z,6.57
2022-09-13T06:17:10.929Z,7.60
2022-09-13T06:19:37.914Z,6.55
2022-09-13T06:22:07.646Z,7.32
2022-09-13T06:24:37.652Z,6.03
2022-09-13T06:27:04.938Z,6.97
2022-09-13T06:29:32.232Z,6.85
2022-09-13T06:31:59.273Z,7.35
2022-09-13T06:34:31.144Z,6.97
2022-09-13T06:36:58.836Z,7.72
2022-09-13T06:39:25.827Z,7.47
2022-09-13T06:41:52.921Z,7.15
2022-09-13T06:44:26.515Z,7.47
2022-09-13T06:46:53.502Z,6.97
2022-09-13T06:49:20.514Z,7.30
2022-09-13T06:51:47.830Z,6.50
2022-09-13T06:54:22.279Z,6.45
2022-09-13T06:56:50.640Z,6.13
2022-09-13T06:59:17.675Z,6.05
2022-09-13T07:01:45.104Z,6.25
2022-09-13T07:04:17.532Z,6.90
2022-09-13T07:06:47.841Z,6.22
2022-09-13T07:09:23.781Z,6.63
2022-09-13T07:11:53.648Z,6.18
2022-09-13T07:14:26.894Z,5.65
2022-09-13T07:16:55.026Z,6.43
2022-09-13T07:19:26.489Z,6.05
2022-09-13T07:21:55.259Z,6.68
2022-09-13T07:24:22.790Z,6.13
2022-09-13T07:26:50.827Z,6.10
2022-09-13T07:29:22.849Z,6.90
2022-09-13T07:31:55.089Z,6.10
2022-09-13T07:34:24.391Z,6.63
2022-09-13T07:36:52.666Z,5.75
2022-09-13T07:39:23.061Z,7.20
2022-09-13T07:41:54.034Z,6.00
2022-09-13T07:44:21.241Z,6.10
2022-09-13T07:46:48.290Z,6.25
2022-09-13T07:49:18.350Z,6.57
2022-09-13T07:51:45.813Z,6.07
2022-09-13T07:54:15.563Z,6.88
2022-09-13T07:56:42.918Z,5.57
2022-09-13T07:59:17.644Z,5.75
2022-09-13T08:01:47.522Z,6.70
2022-09-13T08:04:21.329Z,6.00
2022-09-13T08:06:48.635Z,5.25
2022-09-13T08:09:16.468Z,6.10
2022-09-13T08:11:45.978Z,6.43
2022-09-13T08:14:15.666Z,4.55
2022-09-13T08:16:43.276Z,5.47
2022-09-13T08:19:16.612Z,5.07
2022-09-13T08:21:44.515Z,4.47
2022-09-13T08:24:21.406Z,4.65
2022-09-13T08:26:49.608Z,4.93
2022-09-13T08:29:25.607Z,4.28
2022-09-13T08:31:55.691Z,5.75
2022-09-13T08:34:22.641Z,5.10
2022-09-13T08:36:49.630Z,4.78
2022-09-13T08:39:19.894Z,4.35
2022-09-13T08:42:08.069Z,5.35
2022-09-13T08:44:42.833Z,4.35
2022-09-13T08:47:32.033Z,5.03
2022-09-13T08:50:13.034Z,4.40
2022-09-13T08:53:12.376Z,4.13
2022-09-13T08:56:08.621Z,4.15
2022-09-13T08:59:01.874Z,4.43
2022-09-13T09:01:56.906Z,4.33
2022-09-13T09:04:27.181Z,4.32
2022-09-13T09:07:10.167Z,4.13
2022-09-13T09:09:52.244Z,4.23
2022-09-13T09:12:50.326Z,3.97
2022-09-13T09:15:43.494Z,3.45
2022-09-13T09:18:32.970Z,3.40
2022-09-13T09:21:01.912Z,3.20
2022-09-13T09:23:54.452Z,3.22
2022-09-13T09:26:31.593Z,3.10
2022-09-13T09:29:24.682Z,3.38
2022-09-13T09:32:28.713Z,3.25
2022-09-13T09:35:34.437Z,2.77
2022-09-13T09:38:28.261Z,3.20
2022-09-13T09:40:55.398Z,2.40
2022-09-13T09:43:39.164Z,1.98
2022-09-13T09:48:46.147Z,2.08
2022-09-13T09:51:18.098Z,2.17
2022-09-13T09:53:48.777Z,2.80
2022-09-13T09:56:29.022Z,2.30
2022-09-13T09:58:56.105Z,2.67
2022-09-13T10:01:30.915Z,2.13
2022-09-13T10:04:10.786Z,2.40
2022-09-13T10:06:49.949Z,2.17
2022-09-13T10:09:21.976Z,2.53
2022-09-13T10:11:59.262Z,3.03
2022-09-13T10:14:45.002Z,2.80
2022-09-13T10:17:27.722Z,2.90
2022-09-13T10:20:26.848Z,2.17
2022-09-13T10:23:15.455Z,2.30
2022-09-13T10:25:47.829Z,2.35
2022-09-13T10:28:19.269Z,2.42
2022-09-13T10:30:56.554Z,2.28
2022-09-13T10:33:36.840Z,2.15
2022-09-13T10:36:50.577Z,2.17
2022-09-13T10:39:18.935Z,2.00
2022-09-13T10:41:58.381Z,2.17
2022-09-13T10:44:43.370Z,1.52
2022-09-13T10:47:23.587Z,1.58
2022-09-13T10:49:53.945Z,1.45
2022-09-13T10:52:24.184Z,2.30
2022-09-13T10:54:51.473Z,1.35
2022-09-13T10:57:34.648Z,2.15
2022-09-13T11:00:11.401Z,1.45
2022-09-13T11:02:46.983Z,1.77
2022-09-13T11:05:30.273Z,1.83
2022-09-13T11:08:38.759Z,1.58
2022-09-13T11:11:14.686Z,1.88
2022-09-13T11:14:09.994Z,1.48
2022-09-13T11:16:58.159Z,1.45
2022-09-13T11:19:33.948Z,2.25
2022-09-13T11:22:06.838Z,1.60
2022-09-13T11:24:34.202Z,2.03
2022-09-13T11:27:09.810Z,1.63
2022-09-13T11:30:07.423Z,1.27
2022-09-13T11:33:01.527Z,1.70
2022-09-13T11:38:22.050Z,1.88
2022-09-13T11:41:06.106Z,1.50
2022-09-13T11:43:48.679Z,2.38
2022-09-13T11:46:22.425Z,1.45
2022-09-13T11:49:06.599Z,1.23
2022-09-13T11:52:07.525Z,2.03
2022-09-13T11:54:46.141Z,1.40
2022-09-13T11:57:20.155Z,1.85
2022-09-13T11:59:55.758Z,1.65
2022-09-13T12:02:50.287Z,1.65
2022-09-13T12:05:24.397Z,2.75
2022-09-13T12:08:01.280Z,2.03
2022-09-13T12:10:34.671Z,1.88
2022-09-13T12:13:04.706Z,2.00
2022-09-13T12:15:41.658Z,1.70
2022-09-13T12:18:22.929Z,1.83
2022-09-13T12:21:10.385Z,2.15
2022-09-13T12:23:51.073Z,1.73
2022-09-13T12:26:31.547Z,2.25
2022-09-13T12:29:09.726Z,1.98
2022-09-13T12:31:39.456Z,1.88
2022-09-13T12:34:12.085Z,1.85
2022-09-13T12:37:04.012Z,1.98
2022-09-13T12:39:34.173Z,1.67
2022-09-13T12:42:18.219Z,1.67
2022-09-13T12:44:45.225Z,1.85
2022-09-13T12:47:18.268Z,1.90
2022-09-13T12:50:01.757Z,1.90
2022-09-13T12:53:24.012Z,1.63
2022-09-13T12:56:12.631Z,1.90
2022-09-13T13:02:43.742Z,2.22
2022-09-13T13:05:39.107Z,2.47
2022-09-13T13:08:55.903Z,1.85
2022-09-13T13:11:41.026Z,2.00
2022-09-13T13:19:33.346Z,2.10
2022-09-13T13:22:37.592Z,1.73
2022-09-13T13:25:30.686Z,1.45
2022-09-13T13:28:00.056Z,2.30
2022-09-13T13:30:42.297Z,2.38
2022-09-13T13:33:27.479Z,2.60
2022-09-13T13:35:56.207Z,1.63
2022-09-13T13:38:34.250Z,1.75
2022-09-13T13:41:34.403Z,2.10
2022-09-13T13:44:22.335Z,2.00
2022-09-13T13:46:55.614Z,1.67
2022-09-13T13:49:31.793Z,1.63
2022-09-13T13:52:11.039Z,2.60
2022-09-13T13:54:59.770Z,2.15
2022-09-13T13:57:50.495Z,1.70
2022-09-13T14:00:24.854Z,1.85
2022-09-13T14:02:54.511Z,1.55
2022-09-13T14:05:32.826Z,2.83
2022-09-13T14:08:29.806Z,2.67
2022-09-13T14:11:19.089Z,2.50
2022-09-13T14:13:49.156Z,1.98
2022-09-13T14:16:48.288Z,2.55
2022-09-13T14:19:23.203Z,2.65
2022-09-13T14:22:15.460Z,2.50
2022-09-13T14:24:53.928Z,2.10
2022-09-13T14:27:30.489Z,1.95
2022-09-13T14:30:05.379Z,2.13
2022-09-13T14:32:47.457Z,3.00
2022-09-13T14:35:34.761Z,2.53
2022-09-13T14:38:33.744Z,1.92
2022-09-13T14:41:15.068Z,2.17
2022-09-13T14:43:43.694Z,2.50
2022-09-13T14:46:19.829Z,1.88
2022-09-13T14:48:52.648Z,2.33
2022-09-13T14:51:33.336Z,2.55
2022-09-13T14:54:10.655Z,2.33
2022-09-13T14:56:47.321Z,1.75
2022-09-13T14:59:48.428Z,2.05
2022-09-13T15:02:42.733Z,2.33
2022-09-13T15:05:24.275Z,2.47
2022-09-13T15:07:58.231Z,2.95
2022-09-13T15:10:32.344Z,2.20
2022-09-13T15:13:10.132Z,1.60
2022-09-13T15:15:45.429Z,2.40
2022-09-13T15:18:21.451Z,2.90
2022-09-13T15:21:18.268Z,2.58
2022-09-13T15:23:51.624Z,2.10
2022-09-13T15:26:24.135Z,2.13
2022-09-13T15:28:53.898Z,2.67
2022-09-13T15:31:32.010Z,3.08
2022-09-13T15:34:26.658Z,2.35
2022-09-13T15:37:10.900Z,2.97
2022-09-13T15:40:16.041Z,2.35
2022-09-13T15:42:47.744Z,2.53
2022-09-13T15:45:15.268Z,2.70
2022-09-13T15:47:47.422Z,2.70
2022-09-13T15:50:27.605Z,2.03
2022-09-13T15:53:11.951Z,2.05
2022-09-13T15:55:40.642Z,2.20
2022-09-13T15:58:16.772Z,2.50
2022-09-13T16:01:01.721Z,2.28
2022-09-13T16:07:30.020Z,1.95
2022-09-13T16:10:01.726Z,2.00
2022-09-13T16:12:37.332Z,2.72
2022-09-13T16:15:11.396Z,1.98
2022-09-13T16:17:42.316Z,2.10
2022-09-13T16:20:20.760Z,2.47
2022-09-13T16:22:48.332Z,2.67
2022-09-13T16:25:16.158Z,2.28
2022-09-13T16:27:44.925Z,2.53
2022-09-13T16:30:17.597Z,2.47
2022-09-13T16:32:45.128Z,2.85
2022-09-13T16:35:17.229Z,2.53
2022-09-13T16:37:45.453Z,2.30
2022-09-13T16:40:22.032Z,2.42
2022-09-13T16:42:49.740Z,2.90
2022-09-13T16:45:23.260Z,3.15
2022-09-13T16:47:53.583Z,3.20
2022-09-13T16:50:50.506Z,2.75
2022-09-13T16:53:46.548Z,2.88
2022-09-13T16:56:17.225Z,2.22
2022-09-13T16:59:08.719Z,3.20
2022-09-13T17:01:44.474Z,3.50
2022-09-13T17:04:13.516Z,2.80
2022-09-13T17:06:41.306Z,3.13
2022-09-13T17:09:30.877Z,2.90
2022-09-13T17:12:00.103Z,2.65
2022-09-13T17:14:27.950Z,3.53
2022-09-13T17:16:58.273Z,3.10
2022-09-13T17:19:33.824Z,2.43
2022-09-13T17:22:08.625Z,2.30
2022-09-13T17:24:40.901Z,3.72
2022-09-13T17:30:31.997Z,4.03
2022-09-13T17:33:05.126Z,3.90
2022-09-13T17:35:33.112Z,3.92
2022-09-13T17:38:09.706Z,3.70
2022-09-13T17:40:51.804Z,3.25
2022-09-13T17:48:03.113Z,2.67
2022-09-13T17:51:00.335Z,3.70
2022-09-13T17:57:15.878Z,2.85
2022-09-13T17:59:56.332Z,2.83
2022-09-13T18:03:17.558Z,2.40
2022-09-13T18:14:46.442Z,2.42
2022-09-13T18:20:03.697Z,1.95
2022-09-13T18:22:34.167Z,2.85
2022-09-13T18:25:06.003Z,3.05
2022-09-13T18:27:56.129Z,3.50
2022-09-13T18:34:27.804Z,2.78
2022-09-13T18:37:41.268Z,2.72
2022-09-13T18:40:21.320Z,3.22
2022-09-13T18:43:12.518Z,3.00
2022-09-13T18:49:53.142Z,2.97
2022-09-13T18:52:30.504Z,4.22
2022-09-13T18:54:57.816Z,3.42
2022-09-13T18:57:26.583Z,4.35
2022-09-13T19:00:01.168Z,3.38
2022-09-13T19:02:34.473Z,3.05
2022-09-13T19:05:04.300Z,2.63
2022-09-13T19:07:34.124Z,3.28
2022-09-13T19:10:28.789Z,3.90
2022-09-13T19:12:56.135Z,2.97
2022-09-13T19:15:26.577Z,3.25
2022-09-13T19:17:53.890Z,3.47
2022-09-13T19:20:22.917Z,3.35
2022-09-13T19:23:03.439Z,3.40
2022-09-13T19:25:30.760Z,2.88
2022-09-13T19:28:00.679Z,3.78
2022-09-13T19:30:27.974Z,4.40
2022-09-13T19:32:57.565Z,3.47
2022-09-13T19:35:24.765Z,2.97
2022-09-13T19:37:58.017Z,4.25
2022-09-13T19:40:34.191Z,3.47
2022-09-13T19:54:18.923Z,2.67
2022-09-13T19:57:23.565Z,2.92
2022-09-13T19:59:52.975Z,2.78
2022-09-13T20:02:25.226Z,3.85
2022-09-13T20:04:53.368Z,3.75
2022-09-13T20:07:36.906Z,3.55
2022-09-13T20:10:04.434Z,4.35
2022-09-13T20:12:39.714Z,3.55
2022-09-13T20:15:10.825Z,3.03
2022-09-13T20:17:39.462Z,3.30
2022-09-13T20:20:19.078Z,3.28
2022-09-13T20:23:00.095Z,2.95
2022-09-13T20:25:30.700Z,3.05
2022-09-13T20:28:15.365Z,3.63
2022-09-13T20:30:56.275Z,3.53
2022-09-13T20:33:24.030Z,3.72
2022-09-13T20:35:54.859Z,3.30
2022-09-13T20:38:33.969Z,3.38
2022-09-13T20:41:20.068Z,3.67
2022-09-13T20:43:51.377Z,3.65
2022-09-13T20:46:24.579Z,3.40
2022-09-13T20:48:53.770Z,2.85
2022-09-13T20:51:25.566Z,3.72
2022-09-13T20:54:00.811Z,4.45
2022-09-13T20:56:29.463Z,3.42
2022-09-13T20:59:00.754Z,4.53
2022-09-13T21:01:31.843Z,3.67
2022-09-13T21:04:01.450Z,4.15
2022-09-13T21:06:31.084Z,3.65
2022-09-13T21:09:00.265Z,3.80
2022-09-13T21:11:33.589Z,4.10
2022-09-13T21:14:06.528Z,4.22
2022-09-13T21:16:36.748Z,3.65
2022-09-13T21:19:04.133Z,3.83
2022-09-13T21:21:34.685Z,4.60
2022-09-13T21:24:06.030Z,4.95
2022-09-13T21:26:33.347Z,4.15
2022-09-13T21:29:00.908Z,3.88
2022-09-13T21:31:30.252Z,4.85
2022-09-13T21:34:04.186Z,5.97
2022-09-13T21:36:34.768Z,3.53
2022-09-13T21:39:02.376Z,3.92
2022-09-13T21:41:29.762Z,3.88
2022-09-13T21:43:56.960Z,4.00
2022-09-13T21:46:26.636Z,4.50
2022-09-13T21:49:00.739Z,3.58
2022-09-13T21:51:42.089Z,3.75
2022-09-13T21:54:16.121Z,3.70
2022-09-13T21:56:45.374Z,3.88
2022-09-13T21:59:15.812Z,3.75
2022-09-13T22:01:46.943Z,4.30
2022-09-13T22:04:20.217Z,4.22
2022-09-13T22:06:51.680Z,3.78
2022-09-13T22:09:19.539Z,4.20
2022-09-13T22:11:49.627Z,4.30
2022-09-13T22:14:18.788Z,4.20
2022-09-13T22:16:49.438Z,4.05
2022-09-13T22:19:26.176Z,3.40
2022-09-13T22:21:56.272Z,4.05
2022-09-13T22:24:25.389Z,4.60
2022-09-13T22:26:56.555Z,4.25
2022-09-13T22:29:24.243Z,4.10
2022-09-13T22:31:56.703Z,4.57
2022-09-13T22:34:25.429Z,3.63
2022-09-13T22:36:55.359Z,3.47
2022-09-13T22:39:22.947Z,3.75
2022-09-13T22:41:50.103Z,3.67
2022-09-13T22:44:17.155Z,3.55
2022-09-13T22:46:45.701Z,3.80
2022-09-13T22:49:14.908Z,3.63
2022-09-13T22:51:45.166Z,3.75
2022-09-13T22:54:13.853Z,3.22
2022-09-13T22:56:41.452Z,3.70
2022-09-13T22:59:12.680Z,3.67
2022-09-13T23:01:41.932Z,3.97
2022-09-13T23:04:09.465Z,3.95
2022-09-13T23:06:36.728Z,4.03
2022-09-13T23:09:06.831Z,3.53
2022-09-13T23:11:40.832Z,4.25
2022-09-13T23:14:13.332Z,3.40
2022-09-13T23:16:51.878Z,3.95
2022-09-13T23:19:22.129Z,3.42
2022-09-13T23:21:49.285Z,4.05
2022-09-13T23:24:18.472Z,4.13
2022-09-13T23:26:46.903Z,3.20
2022-09-13T23:29:16.830Z,3.53
2022-09-13T23:31:44.489Z,2.95
2022-09-13T23:34:12.204Z,3.72
2022-09-13T23:36:41.596Z,4.40
2022-09-13T23:39:13.199Z,6.90
2022-09-13T23:41:40.944Z,4.25
2022-09-13T23:44:07.944Z,3.35
2022-09-13T23:46:35.356Z,3.97
2022-09-13T23:49:04.926Z,3.80
2022-09-13T23:51:32.141Z,4.05
2022-09-13T23:54:01.080Z,4.00
2022-09-13T23:56:30.924Z,3.95
2022-09-13T23:58:59.828Z,3.38
